Main page
METAR-TAF:

METAR-TAF

Airports :

Châteauroux-Centre airport

Châteauroux, France

latitude: 46-51N, longitude: 001-43E, elevation: 160 m

Current weather observation

The report was made 22 minutes ago, at 23:00 UTC
Calm wind
Temperature 14°C
Humidity 77%
Pressure 998 hPa
Visibility 10 km or more
no clouds below 1500 m and no cumulonimbus

METAR: LFLX 222300Z AUTO 00000KT CAVOK 14/10 Q0998 NOSIG

Time: 01:22 (23:22 UTC)

Forecast

The report was made 6 hours and 22 minutes ago, at 17:00 UTC
Forecast valid from 22 at 18 UTC to 23 at 24 UTC
Wind 5 kt from the East
Visibility 10 km or more
no clouds below 1500 m and no cumulonimbus
Probability 40% :
Temporary
from 23 at 06 UTC to 23 at 21 UTC
Visibility: 4000 m
Scattered clouds at a height of 6000 ft, Cumulonimbus.
rain showers
Probability 30% :
Temporary
from 23 at 14 UTC to 23 at 19 UTC
thunderstorm, rain

TAF: LFLX 221700Z 2218/2324 08005KT CAVOK PROB40 TEMPO 2306/2321 4000 SHRA SCT060CB PROB30 TEMPO 2314/2319 TSRA

Weather observations and forecasts of more than 4000 airports (METAR and TAF reports).

The available stations are represented by yellow and red dots on the map.

Hover mouse over dot to see the name of the station.

Then click to see weather observations and forecasts.

To change the map : click on the green buttons with a black cross to zoom in, on the green button with a dash to zoom out, or on the green arrows for adjacent maps.


METAR-TAF: